Albany, New York
Traffic Map
Current Weather Conditions
Albany, New York
Broken Clouds
Broken Clouds

Feels Like: -1°
Wind Chill: -1° Ceiling: 3300
Heat Index: Visibility: 10mi
Dew Point: -7° Wind: 5mph
Humidity: 56% Direction: 280° (W)
Pressure: 30.26in Gusts: 0mph
Raw Report DataKALB 041751Z 28004KT 10SM BKN033 01/M07 A3026 RMK AO2 SLP250 T00111067 10017 21017 58004
Traffic Incident Summary
Active as of:
Severity:
Category:
InformationThere was an issue retrieving the traffic information for this location. Please try a different location or try again shortly.
Advertisements
Track Severe Weather on mobile